sensor_id;sensor_type;location;lat;lon;timestamp;pressure;altitude;pressure_sealevel;temperature;humidity
60228;BME280;46091;46.512;6.626;2023-05-07T04:00:01;96812.00;;;18.91;66.52
60228;BME280;46091;46.512;6.626;2023-05-07T04:02:05;96806.22;;;19.16;65.93
60228;BME280;46091;46.512;6.626;2023-05-07T04:04:08;96802.41;;;19.34;65.60
60228;BME280;46091;46.512;6.626;2023-05-07T04:06:11;96806.13;;;19.49;65.26
60228;BME280;46091;46.512;6.626;2023-05-07T04:08:14;96797.72;;;19.63;64.94
60228;BME280;46091;46.512;6.626;2023-05-07T04:10:17;96802.31;;;19.67;64.69
60228;BME280;46091;46.512;6.626;2023-05-07T04:12:20;96808.31;;;19.74;64.71
60228;BME280;46091;46.512;6.626;2023-05-07T04:14:22;96811.84;;;19.80;64.47
60228;BME280;46091;46.512;6.626;2023-05-07T04:16:27;96818.91;;;19.86;64.46
60228;BME280;46091;46.512;6.626;2023-05-07T04:18:29;96811.16;;;19.90;64.20
60228;BME280;46091;46.512;6.626;2023-05-07T04:20:34;96817.66;;;19.94;64.05
60228;BME280;46091;46.512;6.626;2023-05-07T04:22:37;96809.66;;;19.99;64.06
60228;BME280;46091;46.512;6.626;2023-05-07T04:24:40;96826.88;;;20.03;63.81
60228;BME280;46091;46.512;6.626;2023-05-07T04:26:43;96822.06;;;20.05;63.48
60228;BME280;46091;46.512;6.626;2023-05-07T04:28:46;96824.25;;;20.08;63.66
60228;BME280;46091;46.512;6.626;2023-05-07T04:30:49;96832.31;;;20.08;63.52
60228;BME280;46091;46.512;6.626;2023-05-07T04:32:53;96830.72;;;20.12;63.39
60228;BME280;46091;46.512;6.626;2023-05-07T04:34:57;96834.53;;;20.16;63.34
60228;BME280;46091;46.512;6.626;2023-05-07T04:37:00;96848.25;;;20.20;63.13
60228;BME280;46091;46.512;6.626;2023-05-07T04:39:03;96843.69;;;20.20;62.86
60228;BME280;46091;46.512;6.626;2023-05-07T04:41:06;96853.63;;;20.20;63.05
60228;BME280;46091;46.512;6.626;2023-05-07T04:43:09;96857.66;;;20.22;63.02
60228;BME280;46091;46.512;6.626;2023-05-07T04:45:12;96868.69;;;20.26;62.93
60228;BME280;46091;46.512;6.626;2023-05-07T04:47:14;96857.47;;;20.29;62.63
60228;BME280;46091;46.512;6.626;2023-05-07T04:49:19;96862.84;;;20.29;62.66
60228;BME280;46091;46.512;6.626;2023-05-07T04:51:21;96869.59;;;20.31;62.95
60228;BME280;46091;46.512;6.626;2023-05-07T04:53:24;96870.38;;;20.32;62.77
60228;BME280;46091;46.512;6.626;2023-05-07T04:55:27;96873.06;;;20.32;62.69
60228;BME280;46091;46.512;6.626;2023-05-07T04:57:30;96879.81;;;20.34;62.59
60228;BME280;46091;46.512;6.626;2023-05-07T04:59:33;96868.00;;;20.35;62.43
60228;BME280;46091;46.512;6.626;2023-05-07T05:01:36;96873.13;;;20.37;62.49
60228;BME280;46091;46.512;6.626;2023-05-07T05:03:38;96878.47;;;20.37;62.59
60228;BME280;46091;46.512;6.626;2023-05-07T05:05:44;96880.94;;;20.39;62.57
60228;BME280;46091;46.512;6.626;2023-05-07T05:07:46;96873.44;;;20.41;62.30
60228;BME280;46091;46.512;6.626;2023-05-07T05:09:49;96877.75;;;20.42;62.33
60228;BME280;46091;46.512;6.626;2023-05-07T05:11:52;96880.19;;;20.43;62.06
60228;BME280;46091;46.512;6.626;2023-05-07T05:13:55;96875.31;;;20.40;61.99
60228;BME280;46091;46.512;6.626;2023-05-07T05:15:58;96884.44;;;20.39;62.30
60228;BME280;46091;46.512;6.626;2023-05-07T05:18:01;96874.50;;;20.40;62.12
60228;BME280;46091;46.512;6.626;2023-05-07T05:20:05;96862.97;;;20.39;62.15
60228;BME280;46091;46.512;6.626;2023-05-07T05:22:10;96859.66;;;20.32;61.69
60228;BME280;46091;46.512;6.626;2023-05-07T05:24:12;96869.50;;;20.26;61.95
60228;BME280;46091;46.512;6.626;2023-05-07T05:26:15;96872.78;;;20.28;61.68
60228;BME280;46091;46.512;6.626;2023-05-07T05:28:18;96862.59;;;20.30;61.91
60228;BME280;46091;46.512;6.626;2023-05-07T05:30:21;96859.91;;;20.30;61.80
60228;BME280;46091;46.512;6.626;2023-05-07T05:32:23;96861.78;;;20.30;62.13
60228;BME280;46091;46.512;6.626;2023-05-07T05:34:27;96866.34;;;20.29;61.84
60228;BME280;46091;46.512;6.626;2023-05-07T05:36:30;96869.84;;;20.30;61.80
60228;BME280;46091;46.512;6.626;2023-05-07T05:38:34;96865.84;;;20.32;61.96
60228;BME280;46091;46.512;6.626;2023-05-07T05:40:37;96883.56;;;20.33;61.79
60228;BME280;46091;46.512;6.626;2023-05-07T05:42:40;96877.09;;;20.29;61.69
60228;BME280;46091;46.512;6.626;2023-05-07T05:44:42;96879.41;;;20.21;61.81
60228;BME280;46091;46.512;6.626;2023-05-07T05:46:45;96873.47;;;20.19;61.82
60228;BME280;46091;46.512;6.626;2023-05-07T05:48:48;96867.31;;;20.18;61.76
60228;BME280;46091;46.512;6.626;2023-05-07T05:50:51;96874.03;;;20.21;61.71
60228;BME280;46091;46.512;6.626;2023-05-07T05:52:54;96873.53;;;20.24;61.92
60228;BME280;46091;46.512;6.626;2023-05-07T05:54:59;96860.09;;;20.24;61.96
60228;BME280;46091;46.512;6.626;2023-05-07T05:57:02;96865.97;;;20.21;61.93
60228;BME280;46091;46.512;6.626;2023-05-07T05:59:05;96864.63;;;20.18;61.75
60228;BME280;46091;46.512;6.626;2023-05-07T06:01:08;96862.75;;;20.19;62.16
60228;BME280;46091;46.512;6.626;2023-05-07T06:03:12;96863.84;;;20.23;62.07
60228;BME280;46091;46.512;6.626;2023-05-07T06:05:15;96858.22;;;20.24;62.03
60228;BME280;46091;46.512;6.626;2023-05-07T06:07:18;96852.41;;;20.32;62.01
60228;BME280;46091;46.512;6.626;2023-05-07T06:09:21;96849.75;;;20.38;61.85
60228;BME280;46091;46.512;6.626;2023-05-07T06:11:26;96851.72;;;20.42;61.88
60228;BME280;46091;46.512;6.626;2023-05-07T06:13:29;96855.25;;;20.48;61.49
60228;BME280;46091;46.512;6.626;2023-05-07T06:15:32;96862.56;;;20.52;61.85
60228;BME280;46091;46.512;6.626;2023-05-07T06:17:35;96856.44;;;20.57;61.53
60228;BME280;46091;46.512;6.626;2023-05-07T06:19:37;96857.78;;;20.59;61.59
60228;BME280;46091;46.512;6.626;2023-05-07T06:21:40;96847.63;;;20.61;61.37
60228;BME280;46091;46.512;6.626;2023-05-07T06:23:43;96842.78;;;20.63;61.30
60228;BME280;46091;46.512;6.626;2023-05-07T06:25:48;96847.94;;;20.70;61.63
60228;BME280;46091;46.512;6.626;2023-05-07T06:27:52;96839.38;;;20.73;61.25
60228;BME280;46091;46.512;6.626;2023-05-07T06:29:55;96839.13;;;20.75;61.19
60228;BME280;46091;46.512;6.626;2023-05-07T06:32:06;96839.41;;;20.78;61.40
60228;BME280;46091;46.512;6.626;2023-05-07T06:34:09;96842.09;;;20.78;61.35
60228;BME280;46091;46.512;6.626;2023-05-07T06:36:15;96847.22;;;20.80;61.48
60228;BME280;46091;46.512;6.626;2023-05-07T06:38:18;96845.34;;;20.80;61.52
60228;BME280;46091;46.512;6.626;2023-05-07T06:40:21;96843.78;;;20.84;61.19
60228;BME280;46091;46.512;6.626;2023-05-07T06:42:24;96838.69;;;20.88;61.38
60228;BME280;46091;46.512;6.626;2023-05-07T06:44:29;96849.19;;;20.94;61.17
60228;BME280;46091;46.512;6.626;2023-05-07T06:46:31;96847.38;;;21.00;61.45
60228;BME280;46091;46.512;6.626;2023-05-07T06:48:34;96848.47;;;21.04;61.12
60228;BME280;46091;46.512;6.626;2023-05-07T06:50:37;96847.16;;;21.07;61.12
60228;BME280;46091;46.512;6.626;2023-05-07T06:52:40;96840.19;;;21.11;61.16
60228;BME280;46091;46.512;6.626;2023-05-07T06:54:43;96831.59;;;21.14;61.02
60228;BME280;46091;46.512;6.626;2023-05-07T06:56:46;96840.22;;;21.16;61.08
60228;BME280;46091;46.512;6.626;2023-05-07T06:58:48;96847.53;;;21.20;61.48
60228;BME280;46091;46.512;6.626;2023-05-07T07:00:53;96842.41;;;21.24;61.23
60228;BME280;46091;46.512;6.626;2023-05-07T07:02:56;96845.91;;;21.25;60.98
60228;BME280;46091;46.512;6.626;2023-05-07T07:04:59;96846.44;;;21.21;61.23
60228;BME280;46091;46.512;6.626;2023-05-07T07:07:02;96840.81;;;21.23;61.25
60228;BME280;46091;46.512;6.626;2023-05-07T07:09:05;96846.19;;;21.23;61.41
60228;BME280;46091;46.512;6.626;2023-05-07T07:11:08;96852.69;;;21.27;60.88
60228;BME280;46091;46.512;6.626;2023-05-07T07:13:11;96852.72;;;21.32;61.14
60228;BME280;46091;46.512;6.626;2023-05-07T07:15:14;96850.88;;;21.38;60.85
60228;BME280;46091;46.512;6.626;2023-05-07T07:17:18;96850.06;;;21.37;60.78
60228;BME280;46091;46.512;6.626;2023-05-07T07:19:21;96854.09;;;21.40;60.85
60228;BME280;46091;46.512;6.626;2023-05-07T07:21:24;96850.59;;;21.39;60.77
60228;BME280;46091;46.512;6.626;2023-05-07T07:23:26;96848.97;;;21.38;60.84
60228;BME280;46091;46.512;6.626;2023-05-07T07:25:30;96852.47;;;21.39;60.73
60228;BME280;46091;46.512;6.626;2023-05-07T07:27:32;96857.59;;;21.40;61.16
60228;BME280;46091;46.512;6.626;2023-05-07T07:29:35;96850.09;;;21.42;60.53
60228;BME280;46091;46.512;6.626;2023-05-07T07:31:38;96850.91;;;21.43;60.72
60228;BME280;46091;46.512;6.626;2023-05-07T07:33:42;96857.09;;;21.43;60.57
60228;BME280;46091;46.512;6.626;2023-05-07T07:35:45;96853.88;;;21.41;60.45
60228;BME280;46091;46.512;6.626;2023-05-07T07:37:48;96857.09;;;21.43;60.62
60228;BME280;46091;46.512;6.626;2023-05-07T07:39:52;96850.13;;;21.47;60.14
60228;BME280;46091;46.512;6.626;2023-05-07T07:41:54;96854.41;;;21.48;60.65
60228;BME280;46091;46.512;6.626;2023-05-07T07:43:57;96847.44;;;21.47;60.23
60228;BME280;46091;46.512;6.626;2023-05-07T07:46:00;96852.53;;;21.49;60.16
60228;BME280;46091;46.512;6.626;2023-05-07T07:48:03;96860.34;;;21.50;60.32
60228;BME280;46091;46.512;6.626;2023-05-07T07:50:08;96853.41;;;21.55;59.86
60228;BME280;46091;46.512;6.626;2023-05-07T07:52:18;96863.34;;;21.59;60.35
60228;BME280;46091;46.512;6.626;2023-05-07T07:54:21;96872.22;;;21.60;60.00
60228;BME280;46091;46.512;6.626;2023-05-07T07:56:24;96870.09;;;21.62;59.66
60228;BME280;46091;46.512;6.626;2023-05-07T07:58:26;96873.34;;;21.64;59.54
60228;BME280;46091;46.512;6.626;2023-05-07T08:00:29;96861.25;;;21.66;59.80
60228;BME280;46091;46.512;6.626;2023-05-07T08:02:32;96864.47;;;21.68;59.70
60228;BME280;46091;46.512;6.626;2023-05-07T08:04:36;96869.59;;;21.70;59.28
60228;BME280;46091;46.512;6.626;2023-05-07T08:06:40;96862.34;;;21.70;59.54
60228;BME280;46091;46.512;6.626;2023-05-07T08:08:43;96855.59;;;21.73;59.53
60228;BME280;46091;46.512;6.626;2023-05-07T08:10:46;96860.72;;;21.69;59.36
60228;BME280;46091;46.512;6.626;2023-05-07T08:12:51;96868.53;;;21.71;59.30
60228;BME280;46091;46.512;6.626;2023-05-07T08:14:54;96868.78;;;21.74;59.18
60228;BME280;46091;46.512;6.626;2023-05-07T08:16:57;96872.06;;;21.76;58.83
60228;BME280;46091;46.512;6.626;2023-05-07T08:19:00;96869.38;;;21.76;58.69
60228;BME280;46091;46.512;6.626;2023-05-07T08:21:03;96865.88;;;21.76;58.91
60228;BME280;46091;46.512;6.626;2023-05-07T08:23:07;96873.94;;;21.81;58.71
60228;BME280;46091;46.512;6.626;2023-05-07T08:25:10;96872.34;;;21.85;58.63
60228;BME280;46091;46.512;6.626;2023-05-07T08:27:13;96872.91;;;21.87;58.27
60228;BME280;46091;46.512;6.626;2023-05-07T08:29:16;96872.38;;;21.90;58.10
60228;BME280;46091;46.512;6.626;2023-05-07T08:31:18;96870.22;;;21.87;58.34
60228;BME280;46091;46.512;6.626;2023-05-07T08:33:22;96865.63;;;21.83;58.32
60228;BME280;46091;46.512;6.626;2023-05-07T08:35:24;96876.09;;;21.79;58.49
60228;BME280;46091;46.512;6.626;2023-05-07T08:37:28;96877.72;;;21.80;57.99
60228;BME280;46091;46.512;6.626;2023-05-07T08:39:32;96888.47;;;21.80;58.34
60228;BME280;46091;46.512;6.626;2023-05-07T08:41:35;96887.41;;;21.81;57.98
60228;BME280;46091;46.512;6.626;2023-05-07T08:43:41;96876.69;;;21.86;58.04
60228;BME280;46091;46.512;6.626;2023-05-07T08:45:45;96881.53;;;21.94;57.80
60228;BME280;46091;46.512;6.626;2023-05-07T08:47:52;96875.06;;;21.95;57.81
60228;BME280;46091;46.512;6.626;2023-05-07T08:49:56;96872.97;;;21.97;57.78
60228;BME280;46091;46.512;6.626;2023-05-07T08:52:00;96872.13;;;21.97;57.50
60228;BME280;46091;46.512;6.626;2023-05-07T08:54:04;96872.13;;;21.97;57.21
60228;BME280;46091;46.512;6.626;2023-05-07T08:56:09;96869.72;;;22.00;57.06
60228;BME280;46091;46.512;6.626;2023-05-07T08:58:12;96874.84;;;22.02;56.98
60228;BME280;46091;46.512;6.626;2023-05-07T09:00:16;96876.19;;;22.04;57.18
60228;BME280;46091;46.512;6.626;2023-05-07T09:02:19;96876.25;;;22.10;56.84
60228;BME280;46091;46.512;6.626;2023-05-07T09:04:23;96871.97;;;22.14;56.73
60228;BME280;46091;46.512;6.626;2023-05-07T09:06:25;96873.03;;;22.18;56.57
60228;BME280;46091;46.512;6.626;2023-05-07T09:08:28;96863.38;;;22.22;56.61
60228;BME280;46091;46.512;6.626;2023-05-07T09:10:32;96869.28;;;22.24;56.37
60228;BME280;46091;46.512;6.626;2023-05-07T09:12:37;96865.00;;;22.23;56.14
60228;BME280;46091;46.512;6.626;2023-05-07T09:14:40;96866.06;;;22.27;56.08
60228;BME280;46091;46.512;6.626;2023-05-07T09:16:43;96870.09;;;22.29;56.18
60228;BME280;46091;46.512;6.626;2023-05-07T09:18:46;96863.91;;;22.29;56.12
60228;BME280;46091;46.512;6.626;2023-05-07T09:20:49;96874.41;;;22.25;55.97
60228;BME280;46091;46.512;6.626;2023-05-07T09:22:56;96873.88;;;22.28;55.42
60228;BME280;46091;46.512;6.626;2023-05-07T09:24:59;96876.84;;;22.27;55.28
60228;BME280;46091;46.512;6.626;2023-05-07T09:27:02;96880.06;;;22.29;55.09
60228;BME280;46091;46.512;6.626;2023-05-07T09:29:07;96881.69;;;22.30;55.15
60228;BME280;46091;46.512;6.626;2023-05-07T09:31:10;96880.38;;;22.32;55.15
60228;BME280;46091;46.512;6.626;2023-05-07T09:33:13;96885.47;;;22.34;55.05
60228;BME280;46091;46.512;6.626;2023-05-07T09:35:17;96894.09;;;22.36;54.81
60228;BME280;46091;46.512;6.626;2023-05-07T09:37:19;96878.75;;;22.36;54.18
60228;BME280;46091;46.512;6.626;2023-05-07T09:39:23;96890.59;;;22.35;54.19
60228;BME280;46091;46.512;6.626;2023-05-07T09:41:26;96882.78;;;22.34;53.90
60228;BME280;46091;46.512;6.626;2023-05-07T09:43:31;96892.75;;;22.33;53.99
60228;BME280;46091;46.512;6.626;2023-05-07T09:45:37;96884.13;;;22.36;54.08
60228;BME280;46091;46.512;6.626;2023-05-07T09:47:42;96886.03;;;22.36;53.93
60228;BME280;46091;46.512;6.626;2023-05-07T09:49:48;96880.59;;;22.31;53.86
60228;BME280;46091;46.512;6.626;2023-05-07T09:51:52;96881.16;;;22.33;53.66
60228;BME280;46091;46.512;6.626;2023-05-07T09:53:56;96880.63;;;22.36;53.27
60228;BME280;46091;46.512;6.626;2023-05-07T09:56:01;96885.47;;;22.39;53.18
60228;BME280;46091;46.512;6.626;2023-05-07T09:58:06;96879.28;;;22.33;53.34
60228;BME280;46091;46.512;6.626;2023-05-07T10:00:10;96874.72;;;22.34;53.26
60228;BME280;46091;46.512;6.626;2023-05-07T10:02:15;96880.09;;;22.34;53.18
60228;BME280;46091;46.512;6.626;2023-05-07T10:04:21;96877.13;;;22.35;52.97
60228;BME280;46091;46.512;6.626;2023-05-07T10:06:24;96872.81;;;22.40;53.18
60228;BME280;46091;46.512;6.626;2023-05-07T10:08:28;96870.41;;;22.43;52.58
60228;BME280;46091;46.512;6.626;2023-05-07T10:10:33;96872.03;;;22.44;52.62
60228;BME280;46091;46.512;6.626;2023-05-07T10:12:37;96873.91;;;22.49;52.72
60228;BME280;46091;46.512;6.626;2023-05-07T10:14:42;96874.72;;;22.49;52.74
60228;BME280;46091;46.512;6.626;2023-05-07T10:16:46;96873.66;;;22.50;52.31
60228;BME280;46091;46.512;6.626;2023-05-07T10:18:51;96876.06;;;22.52;52.58
60228;BME280;46091;46.512;6.626;2023-05-07T10:20:58;96868.00;;;22.52;52.05
60228;BME280;46091;46.512;6.626;2023-05-07T10:23:05;96872.28;;;22.53;51.85
60228;BME280;46091;46.512;6.626;2023-05-07T10:25:14;96869.38;;;22.54;51.78
60228;BME280;46091;46.512;6.626;2023-05-07T10:27:17;96876.63;;;22.54;51.61
60228;BME280;46091;46.512;6.626;2023-05-07T10:29:28;96879.06;;;22.55;51.81
60228;BME280;46091;46.512;6.626;2023-05-07T10:31:47;96869.38;;;22.54;51.33
60228;BME280;46091;46.512;6.626;2023-05-07T10:33:53;96869.09;;;22.56;51.48
60228;BME280;46091;46.512;6.626;2023-05-07T10:35:59;96871.25;;;22.59;51.32
60228;BME280;46091;46.512;6.626;2023-05-07T10:38:04;96868.28;;;22.60;51.00
60228;BME280;46091;46.512;6.626;2023-05-07T10:40:10;96869.34;;;22.64;51.28
60228;BME280;46091;46.512;6.626;2023-05-07T10:42:15;96870.16;;;22.65;50.88
60228;BME280;46091;46.512;6.626;2023-05-07T10:44:27;96866.94;;;22.68;50.71
60228;BME280;46091;46.512;6.626;2023-05-07T10:46:30;96863.97;;;22.70;50.50
60228;BME280;46091;46.512;6.626;2023-05-07T10:49:07;96864.50;;;22.72;50.78
60228;BME280;46091;46.512;6.626;2023-05-07T10:51:19;96870.97;;;22.76;50.60
60228;BME280;46091;46.512;6.626;2023-05-07T10:53:24;96868.56;;;22.79;50.69
60228;BME280;46091;46.512;6.626;2023-05-07T10:55:29;96871.53;;;22.78;50.35
60228;BME280;46091;46.512;6.626;2023-05-07T10:57:33;96864.25;;;22.78;50.32
60228;BME280;46091;46.512;6.626;2023-05-07T10:59:37;96871.81;;;22.81;50.21
60228;BME280;46091;46.512;6.626;2023-05-07T11:01:53;96864.53;;;22.82;49.89
60228;BME280;46091;46.512;6.626;2023-05-07T11:04:15;96868.28;;;22.76;49.73
60228;BME280;46091;46.512;6.626;2023-05-07T11:06:19;96861.84;;;22.77;49.70
60228;BME280;46091;46.512;6.626;2023-05-07T11:08:22;96866.16;;;22.78;49.45
60228;BME280;46091;46.512;6.626;2023-05-07T11:10:47;96865.06;;;22.79;49.58
60228;BME280;46091;46.512;6.626;2023-05-07T11:12:53;96859.69;;;22.79;49.63
60228;BME280;46091;46.512;6.626;2023-05-07T11:14:57;96862.38;;;22.79;49.04
60228;BME280;46091;46.512;6.626;2023-05-07T11:17:02;96869.38;;;22.80;49.49
60228;BME280;46091;46.512;6.626;2023-05-07T11:19:05;96867.50;;;22.80;49.46
60228;BME280;46091;46.512;6.626;2023-05-07T11:21:09;96873.16;;;22.79;49.49
60228;BME280;46091;46.512;6.626;2023-05-07T11:25:58;96872.06;;;22.75;48.85
60228;BME280;46091;46.512;6.626;2023-05-07T11:28:05;96883.94;;;22.69;49.20
60228;BME280;46091;46.512;6.626;2023-05-07T11:30:10;96876.91;;;22.67;49.19
60228;BME280;46091;46.512;6.626;2023-05-07T11:32:13;96876.91;;;22.62;49.14
60228;BME280;46091;46.512;6.626;2023-05-07T11:34:20;96883.09;;;22.58;48.90
60228;BME280;46091;46.512;6.626;2023-05-07T11:36:30;96887.41;;;22.54;48.99
60228;BME280;46091;46.512;6.626;2023-05-07T11:38:35;96887.94;;;22.51;48.67
60228;BME280;46091;46.512;6.626;2023-05-07T11:40:48;96889.28;;;22.48;48.78
60228;BME280;46091;46.512;6.626;2023-05-07T11:42:52;96890.34;;;22.47;48.67
60228;BME280;46091;46.512;6.626;2023-05-07T11:44:55;96892.78;;;22.44;48.50
60228;BME280;46091;46.512;6.626;2023-05-07T11:46:58;96890.31;;;22.42;48.56
60228;BME280;46091;46.512;6.626;2023-05-07T11:49:02;96892.47;;;22.40;48.92
60228;BME280;46091;46.512;6.626;2023-05-07T11:51:05;96889.25;;;22.38;48.82
60228;BME280;46091;46.512;6.626;2023-05-07T11:53:11;96899.47;;;22.36;48.66
60228;BME280;46091;46.512;6.626;2023-05-07T11:55:18;96902.72;;;22.33;48.52
60228;BME280;46091;46.512;6.626;2023-05-07T11:57:21;96905.69;;;22.31;48.89
60228;BME280;46091;46.512;6.626;2023-05-07T11:59:24;96908.06;;;22.28;49.00
60228;BME280;46091;46.512;6.626;2023-05-07T12:01:27;96906.72;;;22.25;49.04
60228;BME280;46091;46.512;6.626;2023-05-07T12:03:30;96903.22;;;22.25;49.06
60228;BME280;46091;46.512;6.626;2023-05-07T12:05:37;96914.25;;;22.23;49.28
60228;BME280;46091;46.512;6.626;2023-05-07T12:07:43;96921.00;;;22.21;48.84
60228;BME280;46091;46.512;6.626;2023-05-07T12:09:47;96931.75;;;22.21;49.24
60228;BME280;46091;46.512;6.626;2023-05-07T12:11:51;96927.69;;;22.18;48.99
60228;BME280;46091;46.512;6.626;2023-05-07T12:13:54;96930.13;;;22.15;49.18
60228;BME280;46091;46.512;6.626;2023-05-07T12:16:01;96931.72;;;22.11;49.61
60228;BME280;46091;46.512;6.626;2023-05-07T12:18:05;96931.66;;;22.05;49.40
60228;BME280;46091;46.512;6.626;2023-05-07T12:20:09;96930.84;;;22.05;49.40
60228;BME280;46091;46.512;6.626;2023-05-07T12:22:12;96935.16;;;22.01;49.57
60228;BME280;46091;46.512;6.626;2023-05-07T12:24:15;96933.25;;;22.01;49.47
60228;BME280;46091;46.512;6.626;2023-05-07T12:26:24;96931.66;;;22.00;49.78
60228;BME280;46091;46.512;6.626;2023-05-07T12:28:27;96931.66;;;22.00;49.68
60228;BME280;46091;46.512;6.626;2023-05-07T12:30:30;96938.09;;;21.99;49.70
60228;BME280;46091;46.512;6.626;2023-05-07T12:32:33;96935.91;;;21.96;49.95
60228;BME280;46091;46.512;6.626;2023-05-07T12:34:39;96924.34;;;21.96;50.19
60228;BME280;46091;46.512;6.626;2023-05-07T12:36:47;96932.41;;;21.96;50.27
60228;BME280;46091;46.512;6.626;2023-05-07T12:38:51;96928.91;;;21.95;50.52
60228;BME280;46091;46.512;6.626;2023-05-07T12:40:54;96930.00;;;21.94;50.68
60228;BME280;46091;46.512;6.626;2023-05-07T12:43:00;96935.91;;;21.91;50.91
60228;BME280;46091;46.512;6.626;2023-05-07T12:45:10;96937.50;;;21.87;50.94
60228;BME280;46091;46.512;6.626;2023-05-07T12:47:15;96940.44;;;21.86;51.16
60228;BME280;46091;46.512;6.626;2023-05-07T12:49:18;96930.50;;;21.86;50.99
60228;BME280;46091;46.512;6.626;2023-05-07T12:51:25;96937.50;;;21.87;51.26
60228;BME280;46091;46.512;6.626;2023-05-07T12:53:30;96937.50;;;21.87;50.96
60228;BME280;46091;46.512;6.626;2023-05-07T12:55:41;96932.94;;;21.88;51.46
60228;BME280;46091;46.512;6.626;2023-05-07T12:57:48;96936.38;;;21.83;51.67
60228;BME280;46091;46.512;6.626;2023-05-07T12:59:57;96934.78;;;21.82;51.68
60228;BME280;46091;46.512;6.626;2023-05-07T13:02:00;96938.00;;;21.79;51.87
60228;BME280;46091;46.512;6.626;2023-05-07T13:04:04;96938.53;;;21.76;51.98
60228;BME280;46091;46.512;6.626;2023-05-07T13:06:08;96941.22;;;21.76;51.79
60228;BME280;46091;46.512;6.626;2023-05-07T13:08:23;96936.91;;;21.75;52.18
60228;BME280;46091;46.512;6.626;2023-05-07T13:10:27;96933.63;;;21.73;52.04
60228;BME280;46091;46.512;6.626;2023-05-07T13:12:30;96942.25;;;21.70;52.45
60228;BME280;46091;46.512;6.626;2023-05-07T13:14:32;96941.16;;;21.66;52.17
60228;BME280;46091;46.512;6.626;2023-05-07T13:16:37;96943.28;;;21.64;52.79
60228;BME280;46091;46.512;6.626;2023-05-07T13:18:40;96948.09;;;21.62;52.58
60228;BME280;46091;46.512;6.626;2023-05-07T13:20:45;96948.63;;;21.59;52.82
60228;BME280;46091;46.512;6.626;2023-05-07T13:22:51;96955.06;;;21.58;53.21
60228;BME280;46091;46.512;6.626;2023-05-07T13:24:56;96956.97;;;21.62;53.08
60228;BME280;46091;46.512;6.626;2023-05-07T13:26:59;96952.41;;;21.63;53.46
60228;BME280;46091;46.512;6.626;2023-05-07T13:29:02;96966.44;;;21.65;53.11
60228;BME280;46091;46.512;6.626;2023-05-07T13:31:05;96965.84;;;21.63;53.69
60228;BME280;46091;46.512;6.626;2023-05-07T13:33:09;96973.13;;;21.62;53.34
60228;BME280;46091;46.512;6.626;2023-05-07T13:35:12;96969.06;;;21.60;53.86
60228;BME280;46091;46.512;6.626;2023-05-07T13:37:15;96970.41;;;21.57;53.92
60228;BME280;46091;46.512;6.626;2023-05-07T13:39:17;96978.75;;;21.56;53.77
60228;BME280;46091;46.512;6.626;2023-05-07T13:41:20;96981.69;;;21.54;54.08
60228;BME280;46091;46.512;6.626;2023-05-07T13:43:24;96978.47;;;21.52;54.07
60228;BME280;46091;46.512;6.626;2023-05-07T13:45:27;96979.75;;;21.49;54.31
60228;BME280;46091;46.512;6.626;2023-05-07T13:47:31;96984.84;;;21.46;54.13
60228;BME280;46091;46.512;6.626;2023-05-07T13:49:35;96986.44;;;21.42;54.25
60228;BME280;46091;46.512;6.626;2023-05-07T13:51:38;96985.03;;;21.34;54.46
60228;BME280;46091;46.512;6.626;2023-05-07T13:53:42;96988.19;;;21.26;54.85
60228;BME280;46091;46.512;6.626;2023-05-07T13:55:46;96990.81;;;21.21;54.53
60228;BME280;46091;46.512;6.626;2023-05-07T13:57:54;96984.88;;;21.19;54.70
60228;BME280;46091;46.512;6.626;2023-05-07T13:59:58;96997.25;;;21.20;54.60
60228;BME280;46091;46.512;6.626;2023-05-07T14:02:00;97003.44;;;21.20;55.15
60228;BME280;46091;46.512;6.626;2023-05-07T14:04:04;97005.31;;;21.20;55.09
60228;BME280;46091;46.512;6.626;2023-05-07T14:06:08;97006.41;;;21.19;55.16
60228;BME280;46091;46.512;6.626;2023-05-07T14:08:11;97004.16;;;21.11;55.18
60228;BME280;46091;46.512;6.626;2023-05-07T14:10:15;97008.19;;;21.08;55.31
60228;BME280;46091;46.512;6.626;2023-05-07T14:12:18;97005.75;;;21.07;55.53
60228;BME280;46091;46.512;6.626;2023-05-07T14:14:21;97013.56;;;21.08;55.40
60228;BME280;46091;46.512;6.626;2023-05-07T14:16:23;97013.28;;;21.10;55.82
60228;BME280;46091;46.512;6.626;2023-05-07T14:18:26;97011.13;;;21.07;55.91
60228;BME280;46091;46.512;6.626;2023-05-07T14:20:30;97016.72;;;21.05;55.85
60228;BME280;46091;46.512;6.626;2023-05-07T14:22:35;97021.00;;;21.01;55.78
60228;BME280;46091;46.512;6.626;2023-05-07T14:24:37;97027.19;;;21.02;56.28
60228;BME280;46091;46.512;6.626;2023-05-07T14:26:40;97018.59;;;21.05;55.83
60228;BME280;46091;46.512;6.626;2023-05-07T14:28:43;97019.13;;;21.02;56.01
60228;BME280;46091;46.512;6.626;2023-05-07T14:30:48;97025.56;;;21.01;55.97
60228;BME280;46091;46.512;6.626;2023-05-07T14:32:50;97022.31;;;20.99;56.44
60228;BME280;46091;46.512;6.626;2023-05-07T14:34:53;97031.47;;;20.98;56.39
60228;BME280;46091;46.512;6.626;2023-05-07T14:36:57;97034.16;;;20.98;56.25
60228;BME280;46091;46.512;6.626;2023-05-07T14:39:01;97031.13;;;20.94;56.39
60228;BME280;46091;46.512;6.626;2023-05-07T14:41:04;97034.41;;;20.96;56.57
60228;BME280;46091;46.512;6.626;2023-05-07T14:43:07;97041.88;;;20.94;56.64
60228;BME280;46091;46.512;6.626;2023-05-07T14:45:10;97037.31;;;20.94;56.44
60228;BME280;46091;46.512;6.626;2023-05-07T14:47:14;97044.28;;;20.90;56.55
60228;BME280;46091;46.512;6.626;2023-05-07T14:49:20;97047.47;;;20.87;56.75
60228;BME280;46091;46.512;6.626;2023-05-07T14:51:23;97038.34;;;20.88;56.74
60228;BME280;46091;46.512;6.626;2023-05-07T14:53:27;97049.63;;;20.90;57.07
60228;BME280;46091;46.512;6.626;2023-05-07T14:55:31;97046.97;;;20.90;56.66
60228;BME280;46091;46.512;6.626;2023-05-07T14:57:36;97048.56;;;20.91;56.75
60228;BME280;46091;46.512;6.626;2023-05-07T14:59:39;97044.56;;;20.94;56.94